Time;durP1;ratioP1;P1;durP2;ratioP2;P2;SDS_P1;SDS_P2;PMS_P1;PMS_P2;Temp;Humidity;BMP_temperature;BMP_pressure;BME280_temperature;BME280_humidity;BME280_pressure;Samples;Min_cycle;Max_cycle;Signal;HPM_P1;HPM_P2
2021/05/11 00:01:05;;;;;;;5.50;4.90;;;;;;;;;;5111019;28;20443;-72
2021/05/11 00:03:32;;;;;;;7.20;5.40;;;;;;;;;;5111912;28;20524;-72
2021/05/11 00:05:58;;;;;;;5.83;4.20;;;;;;;;;;5111457;28;20566;-72
2021/05/11 00:08:25;;;;;;;6.43;5.13;;;;;;;;;;5111672;28;20794;-72
2021/05/11 00:10:53;;;;;;;5.40;4.80;;;;;;;;;;5111824;28;20575;-72
2021/05/11 00:13:20;;;;;;;6.30;5.20;;;;;;;;;;5111995;28;20542;-73
2021/05/11 00:15:46;;;;;;;5.50;4.10;;;;;;;;;;5111816;28;20447;-73
2021/05/11 00:18:14;;;;;;;5.47;4.87;;;;;;;;;;5111096;28;20729;-72
2021/05/11 00:20:40;;;;;;;5.03;4.53;;;;;;;;;;5111981;28;20444;-72
2021/05/11 00:23:07;;;;;;;6.10;5.50;;;;;;;;;;5111154;28;20453;-72
2021/05/11 00:25:34;;;;;;;6.23;4.47;;;;;;;;;;5111107;28;20432;-73
2021/05/11 00:28:02;;;;;;;5.83;4.67;;;;;;;;;;5110978;28;20508;-73
2021/05/11 00:30:29;;;;;;;4.33;3.93;;;;;;;;;;5111869;28;20480;-72
2021/05/11 00:32:55;;;;;;;5.43;4.30;;;;;;;;;;5110765;28;20446;-72
2021/05/11 00:35:22;;;;;;;4.90;4.40;;;;;;;;;;5111547;28;20823;-72
2021/05/11 00:37:49;;;;;;;5.63;4.73;;;;;;;;;;5111558;28;20530;-73
2021/05/11 00:40:16;;;;;;;5.03;4.23;;;;;;;;;;5110394;28;20506;-73
2021/05/11 00:42:42;;;;;;;5.80;5.30;;;;;;;;;;5111452;28;20451;-73
2021/05/11 00:45:10;;;;;;;5.30;4.10;;;;;;;;;;5110902;28;20451;-72
2021/05/11 00:47:37;;;;;;;4.40;3.90;;;;;;;;;;5111214;28;20468;-72
2021/05/11 00:50:04;;;;;;;5.90;4.67;;;;;;;;;;5110943;28;20443;-73
2021/05/11 00:52:30;;;;;;;5.37;4.27;;;;;;;;;;5111247;28;20442;-73
2021/05/11 00:54:57;;;;;;;4.70;4.07;;;;;;;;;;5099303;28;20441;-72
2021/05/11 00:57:24;;;;;;;4.47;3.83;;;;;;;;;;5091412;28;20631;-73
2021/05/11 00:59:52;;;;;;;4.70;4.00;;;;;;;;;;5095434;28;21053;-72
2021/05/11 01:02:19;;;;;;;5.90;4.20;;;;;;;;;;5113935;28;20446;-72
2021/05/11 01:04:46;;;;;;;5.27;4.40;;;;;;;;;;5115116;28;20939;-72
2021/05/11 01:07:13;;;;;;;6.10;4.60;;;;;;;;;;5114518;28;20548;-73
2021/05/11 01:09:39;;;;;;;5.00;4.37;;;;;;;;;;5115262;28;20534;-72
2021/05/11 01:12:06;;;;;;;5.63;4.70;;;;;;;;;;5111463;28;20888;-73
2021/05/11 01:14:33;;;;;;;6.83;4.33;;;;;;;;;;5114567;28;20450;-73
2021/05/11 01:17:01;;;;;;;5.23;4.40;;;;;;;;;;5109567;28;20546;-72
2021/05/11 01:19:38;;;;;;;6.20;4.90;;;;;;;;;;5115295;28;20482;-73
2021/05/11 01:22:21;;;;;;;7.83;4.67;;;;;;;;;;5114606;28;20902;-72
2021/05/11 01:24:49;;;;;;;4.90;4.17;;;;;;;;;;5115146;28;20446;-72
2021/05/11 01:27:27;;;;;;;6.30;4.57;;;;;;;;;;5114562;28;20486;-73
2021/05/11 01:30:02;;;;;;;5.17;4.50;;;;;;;;;;5115006;28;20454;-72
2021/05/11 01:32:51;;;;;;;5.80;4.57;;;;;;;;;;5115164;28;20769;-73
2021/05/11 01:46:49;;;;;;;12.20;7.77;;;;;;;;;;5113574;28;20474;-73
2021/05/11 01:49:20;;;;;;;8.97;7.00;;;;;;;;;;5114095;28;20881;-72
2021/05/11 01:55:00;;;;;;;10.37;8.53;;;;;;;;;;5108976;27;20961;-72
2021/05/11 01:57:50;;;;;;;9.70;7.40;;;;;;;;;;5108989;28;20479;-72
2021/05/11 02:24:53;;;;;;;8.33;5.67;;;;;;;;;;5108220;28;20518;-72
2021/05/11 02:27:21;;;;;;;7.77;4.93;;;;;;;;;;5107756;28;20476;-71
2021/05/11 02:29:47;;;;;;;5.77;4.20;;;;;;;;;;5108299;28;20461;-72
2021/05/11 02:32:16;;;;;;;5.50;4.20;;;;;;;;;;5107573;28;20451;-72
2021/05/11 02:34:43;;;;;;;5.73;4.73;;;;;;;;;;5111609;28;20802;-73
2021/05/11 02:37:10;;;;;;;7.17;5.13;;;;;;;;;;5106911;28;20444;-72
2021/05/11 02:39:37;;;;;;;5.13;3.83;;;;;;;;;;5108010;28;20443;-72
2021/05/11 02:42:04;;;;;;;6.90;4.57;;;;;;;;;;5107037;28;20455;-71
2021/05/11 02:44:39;;;;;;;6.20;5.03;;;;;;;;;;5107770;28;20539;-72
2021/05/11 02:47:06;;;;;;;5.43;4.67;;;;;;;;;;5107295;28;20496;-72
2021/05/11 02:49:32;;;;;;;6.90;4.67;;;;;;;;;;5107791;28;20440;-72
2021/05/11 02:51:59;;;;;;;4.80;4.30;;;;;;;;;;5107883;28;20640;-72
2021/05/11 02:54:26;;;;;;;9.00;6.03;;;;;;;;;;5107118;28;20483;-72
2021/05/11 02:56:52;;;;;;;8.03;5.57;;;;;;;;;;5107458;28;20588;-72
2021/05/11 02:59:19;;;;;;;7.30;5.07;;;;;;;;;;5107046;28;20591;-72
2021/05/11 03:01:47;;;;;;;9.17;5.40;;;;;;;;;;5107366;28;21066;-72
2021/05/11 03:04:13;;;;;;;10.20;4.20;;;;;;;;;;5103642;28;20441;-72
2021/05/11 03:06:40;;;;;;;6.80;4.93;;;;;;;;;;5094235;28;20535;-72
2021/05/11 03:09:07;;;;;;;5.60;4.27;;;;;;;;;;5093369;28;20440;-72
2021/05/11 03:11:33;;;;;;;5.50;4.80;;;;;;;;;;5094292;28;20437;-72
2021/05/11 03:14:00;;;;;;;5.30;4.17;;;;;;;;;;5093642;28;20472;-72
2021/05/11 03:16:27;;;;;;;6.73;5.00;;;;;;;;;;5093594;28;20536;-72
2021/05/11 03:18:55;;;;;;;6.37;4.30;;;;;;;;;;5093407;28;20447;-72
2021/05/11 03:21:21;;;;;;;4.83;3.90;;;;;;;;;;5093593;28;20486;-72
2021/05/11 03:23:48;;;;;;;6.97;4.90;;;;;;;;;;5093491;28;20463;-71
2021/05/11 03:26:15;;;;;;;4.50;3.73;;;;;;;;;;5093394;28;20447;-72
2021/05/11 03:28:41;;;;;;;5.00;3.60;;;;;;;;;;5093242;28;20539;-73
2021/05/11 03:31:08;;;;;;;5.10;4.23;;;;;;;;;;5092398;28;20542;-75
2021/05/11 03:33:35;;;;;;;6.50;3.83;;;;;;;;;;5093120;28;20480;-71
2021/05/11 03:36:02;;;;;;;5.87;4.00;;;;;;;;;;5093420;28;20531;-73
2021/05/11 03:38:29;;;;;;;5.63;4.00;;;;;;;;;;5093187;28;20463;-72
2021/05/11 03:40:56;;;;;;;4.43;3.60;;;;;;;;;;5093616;28;20444;-72
2021/05/11 03:43:25;;;;;;;5.10;4.00;;;;;;;;;;5092816;28;20544;-72
2021/05/11 03:45:55;;;;;;;6.60;4.90;;;;;;;;;;5093538;28;20482;-74
2021/05/11 03:48:22;;;;;;;5.00;4.07;;;;;;;;;;5092869;28;20457;-77
2021/05/11 03:50:49;;;;;;;9.03;5.63;;;;;;;;;;5093790;28;20448;-73
2021/05/11 03:53:16;;;;;;;6.13;5.00;;;;;;;;;;5092067;28;20514;-72
2021/05/11 03:55:43;;;;;;;9.63;5.20;;;;;;;;;;5093435;28;20523;-77
2021/05/11 03:58:10;;;;;;;7.80;5.90;;;;;;;;;;5092477;28;20779;-70
2021/05/11 04:00:36;;;;;;;10.47;6.50;;;;;;;;;;5093055;28;20491;-71
2021/05/11 04:03:03;;;;;;;10.87;6.50;;;;;;;;;;5093169;28;20445;-70
2021/05/11 04:05:30;;;;;;;11.33;7.13;;;;;;;;;;5092521;28;20436;-70
2021/05/11 04:07:59;;;;;;;11.20;7.10;;;;;;;;;;5092679;28;20447;-75
2021/05/11 04:10:32;;;;;;;11.80;7.50;;;;;;;;;;5092105;28;20847;-71
2021/05/11 04:13:18;;;;;;;12.03;7.37;;;;;;;;;;5093428;28;20473;-70
2021/05/11 04:18:29;;;;;;;13.40;8.90;;;;;;;;;;5092008;28;20454;-70
2021/05/11 04:20:56;;;;;;;12.10;7.77;;;;;;;;;;5092719;28;20447;-76
2021/05/11 04:23:22;;;;;;;16.80;10.03;;;;;;;;;;5092326;28;20448;-75
2021/05/11 04:25:50;;;;;;;12.60;8.17;;;;;;;;;;5092292;28;20937;-76
2021/05/11 04:28:17;;;;;;;15.50;9.20;;;;;;;;;;5091703;28;20569;-74
2021/05/11 04:30:43;;;;;;;15.30;8.37;;;;;;;;;;5092583;28;20445;-74
2021/05/11 04:33:11;;;;;;;15.10;9.00;;;16.20;1.00;;;;;;5091870;28;20475;-75
2021/05/11 04:35:37;;;;;;;15.30;9.60;;;14.40;99.90;;;;;;5092657;28;20485;-73
2021/05/11 04:38:04;;;;;;;10.97;8.00;;;14.20;99.90;;;;;;5092522;28;20527;-74
2021/05/11 04:40:30;;;;;;;17.27;9.60;;;14.30;99.90;;;;;;5091770;28;20440;-75
2021/05/11 04:42:57;;;;;;;13.63;8.70;;;14.30;99.90;;;;;;5092130;28;20536;-76
2021/05/11 04:45:26;;;;;;;13.17;9.13;;;14.30;99.90;;;;;;5091830;28;20433;-76
2021/05/11 04:47:54;;;;;;;14.03;8.97;;;14.40;99.90;;;;;;5092311;28;20445;-76
2021/05/11 04:50:22;;;;;;;14.40;9.03;;;14.30;99.90;;;;;;5091684;28;20871;-76
2021/05/11 04:52:50;;;;;;;13.03;8.93;;;14.40;99.90;;;;;;5091693;28;20492;-76
2021/05/11 04:55:18;;;;;;;13.90;9.10;;;14.50;99.90;;;;;;5091798;28;20432;-76
2021/05/11 04:57:45;;;;;;;15.10;9.50;;;14.50;99.90;;;;;;5092172;28;20524;-77
2021/05/11 05:00:15;;;;;;;11.50;7.70;;;14.50;99.90;;;;;;5091382;28;20536;-74
2021/05/11 05:02:43;;;;;;;16.07;9.47;;;14.30;99.90;;;;;;5091844;28;20433;-77
2021/05/11 05:05:11;;;;;;;14.50;9.90;;;14.30;99.90;;;;;;5091807;28;20937;-76
2021/05/11 05:07:38;;;;;;;13.50;8.53;;;14.40;99.90;;;;;;5092097;28;20581;-76
2021/05/11 05:10:05;;;;;;;12.10;7.90;;;14.30;99.90;;;;;;5092105;28;20448;-76
2021/05/11 05:12:32;;;;;;;13.53;8.53;;;14.30;99.90;;;;;;5091225;28;20547;-76
2021/05/11 05:14:59;;;;;;;12.20;8.30;;;14.20;99.90;;;;;;5092064;28;20619;-76
2021/05/11 05:17:27;;;;;;;11.47;7.70;;;14.40;99.90;;;;;;5091273;28;20440;-76
2021/05/11 05:19:53;;;;;;;13.03;8.77;;;14.50;99.90;;;;;;5091800;28;20531;-76
2021/05/11 05:22:20;;;;;;;13.00;8.40;;;14.40;99.90;;;;;;5090737;28;20455;-77
2021/05/11 05:24:49;;;;;;;14.33;8.30;;;14.50;99.90;;;;;;5091819;28;20447;-77
2021/05/11 05:27:19;;;;;;;12.13;7.60;;;14.20;99.90;;;;;;5090471;28;20448;-76
2021/05/11 05:29:46;;;;;;;15.10;8.43;;;14.60;99.90;;;;;;5091500;28;20421;-76
2021/05/11 05:32:12;;;;;;;10.80;7.57;;;14.70;99.90;;;;;;5090969;28;20777;-73
2021/05/11 05:34:40;;;;;;;11.33;7.57;;;14.50;99.90;;;;;;5091572;28;20605;-75
2021/05/11 05:37:07;;;;;;;12.50;8.20;;;14.60;99.90;;;;;;5091496;28;20502;-74
2021/05/11 05:39:37;;;;;;;9.73;7.27;;;14.60;99.90;;;;;;5090887;28;20452;-76
2021/05/11 05:42:03;;;;;;;11.07;7.03;;;14.70;99.90;;;;;;5091580;28;20447;-74
2021/05/11 05:44:30;;;;;;;8.73;6.10;;;14.40;99.90;;;;;;5090823;28;20443;-74
2021/05/11 05:46:56;;;;;;;13.73;8.07;;;14.50;99.90;;;;;;5091443;28;20535;-76
2021/05/11 05:49:25;;;;;;;11.80;6.87;;;14.30;99.90;;;;;;5090752;28;20447;-77
2021/05/11 05:51:59;;;;;;;10.77;7.47;;;14.30;99.90;;;;;;5091079;28;20448;-77
2021/05/11 05:54:25;;;;;;;8.10;6.40;;;14.40;99.90;;;;;;5090782;28;20545;-76
2021/05/11 05:56:52;;;;;;;11.50;7.90;;;14.40;99.90;;;;;;5091440;28;20524;-74
2021/05/11 05:59:18;;;;;;;10.30;7.20;;;14.20;99.90;;;;;;5090367;28;20505;-75
2021/05/11 06:01:49;;;;;;;10.90;8.00;;;;;;;;;;5091286;28;20451;-76
2021/05/11 06:04:17;;;;;;;11.27;7.83;;;;;;;;;;5090433;28;20937;-77
2021/05/11 06:06:46;;;;;;;11.23;7.83;;;;;;;;;;5091115;28;20531;-77
2021/05/11 06:09:14;;;;;;;9.57;7.20;;;;;;;;;;5091212;28;20520;-77
2021/05/11 06:11:45;;;;;;;7.90;6.40;;;;;;;;;;5091130;28;20436;-76
2021/05/11 06:14:17;;;;;;;9.40;7.43;;;;;;;;;;5091416;28;20503;-77
2021/05/11 06:17:13;;;;;;;9.83;7.17;;;;;;;;;;5091566;28;20432;-77
2021/05/11 06:19:40;;;;;;;8.20;7.03;;;;;;;;;;5091445;28;20428;-77
2021/05/11 06:22:07;;;;;;;10.17;7.50;;;;;;;;;;5090847;28;20440;-77
2021/05/11 06:24:34;;;;;;;10.60;6.83;;;;;;;;;;5090261;28;20539;-77
2021/05/11 06:27:01;;;;;;;8.23;6.93;;;;;;;;;;5091331;28;20527;-77
2021/05/11 06:29:30;;;;;;;8.90;6.47;;;;;;;;;;5090614;28;20449;-76
2021/05/11 06:31:57;;;;;;;10.23;8.87;;;;;;;;;;5091061;28;20513;-76
2021/05/11 06:34:23;;;;;;;8.53;7.03;;;;;;;;;;5090832;28;20512;-76
2021/05/11 06:36:50;;;;;;;9.03;6.07;;;;;;;;;;5091133;28;20854;-77
2021/05/11 06:39:17;;;;;;;11.70;8.33;;;;;;;;;;5090341;28;20932;-77
2021/05/11 06:41:49;;;;;;;12.97;9.17;;;;;;;;;;5095094;28;20449;-77
2021/05/11 06:44:18;;;;;;;11.07;8.80;;;;;;;;;;5094581;28;20449;-76
2021/05/11 06:49:51;;;;;;;12.57;8.77;;;;;;;;;;5083201;28;20929;-77
2021/05/11 06:55:04;;;;;;;9.57;8.17;;;;;;;;;;5094282;28;20836;-77
2021/05/11 06:57:31;;;;;;;11.17;8.07;;;;;;;;;;5093871;28;20444;-76
2021/05/11 06:59:58;;;;;;;11.50;8.87;;;;;;;;;;5094278;28;20480;-75
2021/05/11 07:02:25;;;;;;;10.87;8.17;;;;;;;;;;5093511;28;20562;-77
2021/05/11 07:04:52;;;;;;;12.13;8.07;;;;;;;;;;5094641;28;20443;-77
2021/05/11 07:07:19;;;;;;;12.50;7.93;;;;;;;;;;5094192;28;20440;-76
2021/05/11 07:15:16;;;;;;;8.97;7.23;;;;;;;;;;5094335;28;20396;-77
2021/05/11 07:17:43;;;;;;;10.20;8.27;;;;;;;;;;5094022;28;20472;-76
2021/05/11 07:20:10;;;;;;;10.27;7.80;;;;;;;;;;5093878;28;20469;-75
2021/05/11 07:22:37;;;;;;;8.40;6.40;;;;;;;;;;5093425;28;20807;-77
2021/05/11 07:25:07;;;;;;;8.87;7.37;;;;;;;;;;5094124;28;20848;-76
2021/05/11 07:27:51;;;;;;;9.50;8.40;;;;;;;;;;5093678;28;20428;-77
2021/05/11 07:30:26;;;;;;;8.40;7.00;;;;;;;;;;5094368;28;20425;-77
2021/05/11 07:32:52;;;;;;;10.03;7.37;;;;;;;;;;5093517;28;20428;-76
2021/05/11 07:35:19;;;;;;;8.97;6.67;;;;;;;;;;5093660;28;20493;-72
2021/05/11 07:37:46;;;;;;;9.40;5.90;;;;;;;;;;5094127;28;20435;-77
2021/05/11 07:40:13;;;;;;;9.13;6.53;;;;;;;;;;5093951;28;20441;-76
2021/05/11 07:42:41;;;;;;;6.80;5.73;;;;;;;;;;5093339;28;20472;-77
2021/05/11 07:45:10;;;;;;;8.67;6.83;;;;;;;;;;5093951;28;20468;-77
2021/05/11 07:47:55;;;;;;;10.67;7.93;;;;;;;;;;5092927;28;20445;-77
2021/05/11 08:15:21;;;;;;;7.43;6.20;;;;;;;;;;5092963;28;20451;-77
2021/05/11 08:17:52;;;;;;;5.90;4.90;;;;;;;;;;5093030;28;20515;-77
2021/05/11 08:21:48;;;;;;;5.17;4.67;;;;;;;;;;5093042;28;20420;-77
2021/05/11 08:27:27;;;;;;;8.17;5.53;;;;;;;;;;5092518;28;20444;-77
2021/05/11 08:29:07;;;;;;;6.00;5.40;;;;;;;;;;5092692;28;20915;-76
2021/05/11 08:31:35;;;;;;;7.40;4.93;;;;;;;;;;5092245;28;20466;-77
2021/05/11 08:34:02;;;;;;;5.23;4.70;;;;;;;;;;5092747;28;20472;-77
2021/05/11 08:36:28;;;;;;;5.40;4.53;;;;;;;;;;5092182;28;20429;-77
2021/05/11 08:38:58;;;;;;;6.20;4.57;;;;;;;;;;5093006;28;20498;-77
2021/05/11 08:41:25;;;;;;;6.03;4.33;;;;;;;;;;5091957;28;20440;-76
2021/05/11 08:43:51;;;;;;;5.20;4.60;;;;;;;;;;5092441;28;21203;-77
2021/05/11 08:46:18;;;;;;;5.37;4.47;;;;;;;;;;5092705;28;20565;-76
2021/05/11 08:48:48;;;;;;;4.20;3.80;;;;;;;;;;5091774;28;20511;-76
2021/05/11 08:51:18;;;;;;;4.13;3.73;;;;;;;;;;5092191;28;20922;-77
2021/05/11 09:05:26;;;;;;;3.33;2.60;;;;;;;;;;5089125;28;20447;-77
2021/05/11 09:08:01;;;;;;;4.07;3.20;;;;;;;;;;5091950;28;20421;-76
2021/05/11 09:27:24;;;;;;;14.80;6.17;;;;;;;;;;5092007;28;20405;-78
2021/05/11 09:30:11;;;;;;;5.70;3.50;;;;;;;;;;5092037;28;20431;-77
2021/05/11 09:32:47;;;;;;;5.07;4.23;;;;;;;;;;5091468;28;20432;-78
2021/05/11 09:52:27;;;;;;;4.03;3.60;;;;;;;;;;5091581;28;20423;-77
2021/05/11 09:55:04;;;;;;;5.00;4.10;;;;;;;;;;5092002;28;20544;-76
2021/05/11 09:57:42;;;;;;;6.60;4.40;;;;;;;;;;5091156;28;20511;-78
2021/05/11 10:31:47;;;;;;;10.20;7.37;;;;;;;;;;5095175;28;20535;-77
2021/05/11 10:48:35;;;;;;;9.07;7.20;;;18.10;1.00;;;;;;5095071;28;20411;-78
2021/05/11 10:51:03;;;;;;;13.87;7.90;;;17.90;1.00;;;;;;5094997;28;20790;-77
2021/05/11 10:53:49;;;;;;;11.27;8.40;;;18.00;1.00;;;;;;5094079;28;21078;-76
2021/05/11 10:56:46;;;;;;;9.07;7.70;;;18.10;1.00;;;;;;5094952;28;20788;-77
2021/05/11 10:59:18;;;;;;;12.77;9.47;;;;;;;;;;5094621;28;20428;-76
2021/05/11 11:01:49;;;;;;;8.87;7.47;;;;;;;;;;5094159;28;20520;-77
2021/05/11 11:04:17;;;;;;;10.93;7.90;;;;;;;;;;5094500;28;20917;-77
2021/05/11 11:07:02;;;;;;;9.53;7.83;;;;;;;;;;5093616;28;20533;-76
2021/05/11 11:09:29;;;;;;;10.40;7.77;;;;;;;;;;5094414;28;20917;-76
2021/05/11 11:11:57;;;;;;;11.33;8.63;;;;;;;;;;5093963;28;20524;-76
2021/05/11 11:14:24;;;;;;;8.70;7.60;;;;;;;;;;5094263;28;20558;-77
2021/05/11 11:17:00;;;;;;;12.93;8.57;;;;;;;;;;5093395;28;20443;-77
2021/05/11 11:19:27;;;;;;;11.60;8.07;;;;;;;;;;5094318;28;20456;-77
2021/05/11 11:22:01;;;;;;;10.50;7.33;;;;;;;;;;5093454;28;20523;-77
2021/05/11 11:24:28;;;;;;;9.20;7.00;;;;;;;;;;5094468;28;20464;-76
2021/05/11 11:26:57;;;;;;;8.10;7.07;;;;;;;;;;5093010;28;20510;-78
2021/05/11 11:29:24;;;;;;;8.17;6.27;;;;;;;;;;5093753;28;20489;-77
2021/05/11 11:31:51;;;;;;;6.60;6.00;;;;;;;;;;5093179;28;20807;-75
2021/05/11 11:34:20;;;;;;;7.20;6.47;;;;;;;;;;5093775;28;20567;-79
2021/05/11 11:36:47;;;;;;;8.50;7.60;;;;;;;;;;5093439;28;20528;-77
2021/05/11 11:39:18;;;;;;;11.23;6.00;;;;;;;;;;5094202;28;20433;-77
2021/05/11 11:41:44;;;;;;;5.93;5.20;;;;;;;;;;5093275;28;20441;-78
2021/05/11 11:44:15;;;;;;;12.57;5.97;;;;;;;;;;5093663;28;20446;-77
2021/05/11 11:46:41;;;;;;;5.20;4.70;;;;;;;;;;5093309;28;20439;-78
2021/05/11 11:49:16;;;;;;;4.57;4.20;;;;;;;;;;5093914;28;20491;-78
2021/05/11 11:51:43;;;;;;;5.67;5.17;;;;;;;;;;5093388;28;20528;-78
2021/05/11 11:54:19;;;;;;;6.27;5.70;;;;;;;;;;5093144;28;20579;-78
2021/05/11 11:59:54;;;;;;;5.60;5.10;;;;;;;;;;5050805;28;20434;-78
2021/05/11 12:02:21;;;;;;;5.70;5.20;;;;;;;;;;5086866;28;20468;-77
2021/05/11 12:04:48;;;;;;;5.13;4.70;;;18.10;1.00;;;;;;5093285;28;20445;-78
2021/05/11 12:07:17;;;;;;;3.87;3.53;;;20.00;1.00;;;;;;5093566;28;20557;-77
2021/05/11 12:09:47;;;;;;;4.73;4.30;;;;;;;;;;5092949;28;20445;-77
2021/05/11 12:12:15;;;;;;;4.40;4.00;;;;;;;;;;5094157;28;20444;-77
2021/05/11 12:14:42;;;;;;;3.10;2.80;;;;;;;;;;5095846;28;20480;-77
2021/05/11 12:17:09;;;;;;;3.03;2.73;;;;;;;;;;5098922;28;20437;-77
2021/05/11 12:19:42;;;;;;;3.10;2.60;;;;;;;;;;5100910;28;20459;-77
2021/05/11 12:22:09;;;;;;;2.37;2.17;;;;;;;;;;5100817;28;20501;-77
2021/05/11 12:24:37;;;;;;;3.00;2.20;;;;;;;;;;5100986;28;20536;-78
2021/05/11 12:27:11;;;;;;;2.97;2.77;;;;;;;;;;5103282;28;20444;-77
2021/05/11 12:29:37;;;;;;;2.60;2.20;;;;;;;;;;5106386;28;20444;-74
2021/05/11 12:32:04;;;;;;;5.00;2.57;;;;;;;;;;5110404;28;20429;-77
2021/05/11 12:34:31;;;;;;;2.43;2.23;;;;;;;;;;5115410;28;20483;-76
2021/05/11 12:37:00;;;;;;;2.93;2.43;;;;;;;;;;5115410;28;20477;-76
2021/05/11 12:39:38;;;;;;;2.83;2.40;;;;;;;;;;5116046;28;20424;-76
2021/05/11 12:42:15;;;;;;;2.70;2.50;;;;;;;;;;5115570;28;20404;-77
2021/05/11 12:44:42;;;;;;;2.07;1.97;;;;;;;;;;5113737;28;20444;-76
2021/05/11 12:47:09;;;;;;;4.10;3.80;;;;;;;;;;5114545;28;20478;-77
2021/05/11 12:49:36;;;;;;;3.90;3.60;;;;;;;;;;5108750;28;20478;-77
2021/05/11 12:52:05;;;;;;;3.30;3.00;;;;;;;;;;5102888;28;20506;-77
2021/05/11 12:54:34;;;;;;;3.23;2.90;;;;;;;;;;5104468;28;20484;-78
2021/05/11 12:59:55;;;;;;;2.70;2.50;;;;;;;;;;5078028;28;20937;-78
2021/05/11 13:02:38;;;;;;;2.90;2.70;;;;;;;;;;5092820;28;20451;-77
2021/05/11 13:13:57;;;;;;;2.47;2.27;;;;;;;;;;5091446;28;21010;-77
2021/05/11 13:16:33;;;;;;;2.90;2.60;;;;;;;;;;5091787;28;20448;-77
2021/05/11 13:22:05;;;;;;;2.73;2.50;;;;;;;;;;5091042;28;20517;-77
2021/05/11 13:27:23;;;;;;;3.10;2.13;;;;;;;;;;5091877;28;20448;-77
2021/05/11 13:30:09;;;;;;;2.97;2.70;;;;;;;;;;5090863;28;20437;-77
2021/05/11 13:32:49;;;;;;;3.47;2.70;;;;;;;;;;5091574;28;20527;-76
2021/05/11 13:35:16;;;;;;;4.27;3.83;;;;;;;;;;5091847;28;20479;-78
2021/05/11 13:37:43;;;;;;;5.03;3.87;;;;;;;;;;5090710;28;20448;-77
2021/05/11 13:40:10;;;;;;;5.53;5.13;;;;;;;;;;5091139;28;20440;-77
2021/05/11 13:42:37;;;;;;;5.90;5.40;;;;;;;;;;5091506;28;20448;-77
2021/05/11 13:45:04;;;;;;;5.10;4.20;;;;;;;;;;5091658;28;20552;-78
2021/05/11 13:47:31;;;;;;;6.30;4.83;;;;;;;;;;5091549;28;20480;-78
2021/05/11 13:50:01;;;;;;;5.50;5.00;;;;;;;;;;5081168;28;20635;-77
2021/05/11 13:52:28;;;;;;;5.73;5.10;;;;;;;;;;5090680;28;21012;-77
2021/05/11 13:54:58;;;;;;;5.43;4.90;;;;;;;;;;5090891;28;20552;-78
2021/05/11 14:01:33;;;;;;;5.83;5.33;;;;;;;;;;5091522;28;20444;-78
2021/05/11 14:03:09;;;;;;;5.00;4.03;;;;;;;;;;5091098;28;20474;-77
2021/05/11 14:05:38;;;;;;;4.83;4.20;;;;;;;;;;5091333;28;20829;-77
2021/05/11 14:08:05;;;;;;;5.50;5.00;;;;;;;;;;5091534;28;20518;-79
2021/05/11 14:10:31;;;;;;;6.37;5.60;;;;;;;;;;5090798;28;20449;-78
2021/05/11 14:12:58;;;;;;;4.40;4.00;;;;;;;;;;5090238;28;20835;-78
2021/05/11 14:15:25;;;;;;;6.83;4.97;;;;;;;;;;5090791;28;20480;-78
2021/05/11 14:17:51;;;;;;;8.93;5.00;;;;;;;;;;5090568;28;20451;-78
2021/05/11 14:20:18;;;;;;;4.47;4.03;;;;;;;;;;5090940;28;20990;-79
2021/05/11 14:22:45;;;;;;;4.43;4.03;;;;;;;;;;5090628;28;20890;-78
2021/05/11 14:25:13;;;;;;;5.67;3.67;;;;;;;;;;5082578;28;20453;-79
2021/05/11 14:27:40;;;;;;;3.03;2.73;;;;;;;;;;5090479;28;20532;-78
2021/05/11 14:30:07;;;;;;;4.67;4.03;;;;;;;;;;5090405;28;20451;-77
2021/05/11 14:32:34;;;;;;;4.10;3.27;;;;;;;;;;5091065;28;20513;-79
2021/05/11 14:35:00;;;;;;;7.13;3.33;;;;;;;;;;5090595;28;20580;-79
2021/05/11 14:37:27;;;;;;;3.27;2.97;;;;;;;;;;5091079;28;20458;-78
2021/05/11 14:39:55;;;;;;;4.77;4.23;;;;;;;;;;5090181;28;20452;-78
2021/05/11 14:42:21;;;;;;;7.37;3.57;;;;;;;;;;5090854;28;20440;-78
2021/05/11 14:44:52;;;;;;;6.13;5.30;;;;;;;;;;5090181;28;20454;-78
2021/05/11 14:47:18;;;;;;;5.00;3.70;;;;;;;;;;5091014;28;20476;-79
2021/05/11 14:49:45;;;;;;;4.13;3.17;;;;;;;;;;5090016;28;20487;-79
2021/05/11 14:52:13;;;;;;;4.60;3.87;;;;;;;;;;5077089;28;20527;-77
2021/05/11 14:54:40;;;;;;;7.00;3.67;;;;;;;;;;5090484;28;20575;-78
2021/05/11 14:57:07;;;;;;;2.80;2.60;;;;;;;;;;5090763;28;20440;-76
2021/05/11 14:59:34;;;;;;;3.50;2.80;;;;;;;;;;5090882;28;20455;-78
2021/05/11 15:02:01;;;;;;;4.33;2.70;;;;;;;;;;5092718;28;20479;-78
2021/05/11 15:04:27;;;;;;;3.10;2.30;;;;;;;;;;5094219;28;21015;-78
2021/05/11 15:06:54;;;;;;;3.43;3.00;;;;;;;;;;5093709;28;20999;-78
2021/05/11 15:09:21;;;;;;;3.37;2.53;;;;;;;;;;5094075;28;20808;-78
2021/05/11 15:11:47;;;;;;;3.40;2.70;;;;;;;;;;5093905;28;20531;-78
2021/05/11 15:14:15;;;;;;;3.23;2.10;;;;;;;;;;5094255;28;20566;-78
2021/05/11 15:16:42;;;;;;;6.67;2.93;;;;;;;;;;5093867;28;20444;-78
2021/05/11 15:19:10;;;;;;;3.20;2.50;;;;;;;;;;5093815;28;20528;-76
2021/05/11 15:21:37;;;;;;;3.83;2.33;;;;;;;;;;5094027;28;20453;-77
2021/05/11 15:24:06;;;;;;;4.37;2.80;;;;;;;;;;5094368;28;20484;-78
2021/05/11 15:26:34;;;;;;;2.43;1.67;;;;;;;;;;5093804;28;21036;-79
2021/05/11 15:29:01;;;;;;;2.60;1.87;;;;;;;;;;5093105;28;20467;-78
2021/05/11 15:31:29;;;;;;;2.80;2.07;;;;;;;;;;5093972;28;20559;-79
2021/05/11 15:33:56;;;;;;;3.10;2.17;;;;;;;;;;5093391;28;20907;-78
2021/05/11 15:36:23;;;;;;;3.60;2.33;;;;;;;;;;5093579;28;20463;-78
2021/05/11 15:38:49;;;;;;;3.00;2.50;;;;;;;;;;5092588;28;21028;-78
2021/05/11 15:41:16;;;;;;;2.30;1.73;;;;;;;;;;5093758;28;20492;-78
2021/05/11 15:43:43;;;;;;;5.30;2.80;;;;;;;;;;5092776;28;20460;-78
2021/05/11 15:46:10;;;;;;;2.43;1.50;;;;;;;;;;5093490;28;20532;-78
2021/05/11 15:48:37;;;;;;;1.60;1.50;;;;;;;;;;5093337;28;20449;-75
2021/05/11 15:51:04;;;;;;;2.33;1.70;;;;;;;;;;5092618;28;20543;-74
2021/05/11 15:53:31;;;;;;;1.50;1.40;;;;;;;;;;5092298;28;20472;-78
2021/05/11 15:55:58;;;;;;;1.90;1.37;;;;;;;;;;5092169;28;20969;-72
2021/05/11 15:58:25;;;;;;;1.20;0.90;;;;;;;;;;5092038;28;20440;-75
2021/05/11 16:00:53;;;;;;;1.50;1.00;;;;;;;;;;5092149;28;20489;-73
2021/05/11 16:03:20;;;;;;;3.20;1.33;;;;;;;;;;5092677;28;20461;-72
2021/05/11 16:05:48;;;;;;;1.33;1.07;;;;;;;;;;5085750;28;20539;-71
2021/05/11 16:08:16;;;;;;;1.33;1.10;;;;;;;;;;5089999;28;21040;-72
2021/05/11 16:10:43;;;;;;;1.77;1.30;;;;;;;;;;5089075;28;20460;-72
2021/05/11 16:13:10;;;;;;;1.30;1.00;;;;;;;;;;5090551;28;20453;-72
2021/05/11 16:15:37;;;;;;;1.40;1.17;;;;;;;;;;5090285;28;20821;-72
2021/05/11 16:18:05;;;;;;;2.60;0.80;;;;;;;;;;5090435;28;20494;-71
2021/05/11 16:20:32;;;;;;;2.70;1.33;;;;;;;;;;5089825;28;20754;-71
2021/05/11 16:22:59;;;;;;;3.57;1.33;;;;;;;;;;5089166;28;20479;-71
2021/05/11 16:25:26;;;;;;;6.27;4.13;;;;;;;;;;5088281;28;20527;-71
2021/05/11 16:27:54;;;;;;;12.73;10.97;;;;;;;;;;5086910;28;20459;-74
2021/05/11 16:30:21;;;;;;;4.80;4.50;;;;;;;;;;5088911;28;20448;-71
2021/05/11 16:32:49;;;;;;;2.30;1.40;;;;;;;;;;5089716;28;20885;-71
2021/05/11 16:35:16;;;;;;;3.27;1.20;;;;;;;;;;5089938;28;21003;-72
2021/05/11 16:37:43;;;;;;;1.37;1.10;;;;;;;;;;5089249;28;20983;-71
2021/05/11 16:40:11;;;;;;;1.70;1.50;;;;;;;;;;5089600;28;20480;-71
2021/05/11 16:42:38;;;;;;;3.47;1.80;;;;;;;;;;5089341;28;20524;-71
2021/05/11 16:45:07;;;;;;;2.30;1.10;;;;;;;;;;5089919;28;20448;-71
2021/05/11 16:47:34;;;;;;;1.07;0.73;;;;;;;;;;5090397;28;20516;-71
2021/05/11 16:50:01;;;;;;;1.30;1.10;;;;;;;;;;5088600;28;20440;-71
2021/05/11 16:52:27;;;;;;;1.90;1.30;;;;;;;;;;5075972;28;20844;-71
2021/05/11 16:54:54;;;;;;;2.50;1.07;;;;;;;;;;5089077;28;21025;-71
2021/05/11 16:57:22;;;;;;;1.53;1.20;;;;;;;;;;5089596;28;20523;-71
2021/05/11 16:59:48;;;;;;;2.50;1.70;;;;;;;;;;5088554;28;20488;-71
2021/05/11 17:02:15;;;;;;;2.40;1.20;;;;;;;;;;5089660;28;20487;-71
2021/05/11 17:04:42;;;;;;;2.33;1.63;;;;;;;;;;5088899;28;20457;-72
2021/05/11 17:07:08;;;;;;;4.97;0.97;;;;;;;;;;5089858;28;20535;-70
2021/05/11 17:09:35;;;;;;;2.97;1.20;;;;;;;;;;5089688;28;20535;-70
2021/05/11 17:12:02;;;;;;;4.67;1.00;;;;;;;;;;5088876;28;20445;-70
2021/05/11 17:14:29;;;;;;;3.80;1.17;;;;;;;;;;5088111;28;20476;-70
2021/05/11 17:16:56;;;;;;;1.60;1.10;;;;;;;;;;5088576;28;20484;-70
2021/05/11 17:19:22;;;;;;;1.87;1.17;;;;;;;;;;5087912;28;20536;-72
2021/05/11 17:21:49;;;;;;;5.97;3.63;;;;;;;;;;5087240;28;20531;-71
2021/05/11 17:24:16;;;;;;;4.87;1.43;;;;;;;;;;5087196;28;20543;-71
2021/05/11 17:26:42;;;;;;;1.37;1.00;;;;;;;;;;5086689;28;20524;-70
2021/05/11 17:29:15;;;;;;;3.33;1.30;;;;;;;;;;5087701;28;20453;-71
2021/05/11 17:31:43;;;;;;;1.53;0.87;;;;;;;;;;5088015;28;20448;-70
2021/05/11 17:34:11;;;;;;;1.20;1.07;;;;;;;;;;5088955;28;20593;-70
2021/05/11 17:36:38;;;;;;;2.97;1.90;;;;;;;;;;5089228;28;20453;-70
2021/05/11 17:39:05;;;;;;;1.10;1.00;;;;;;;;;;5088587;28;20455;-76
2021/05/11 17:41:32;;;;;;;1.47;1.00;;;;;;;;;;5088187;28;20861;-71
2021/05/11 17:43:59;;;;;;;2.90;1.60;;;;;;;;;;5087723;28;20955;-72
2021/05/11 17:46:26;;;;;;;2.60;1.50;;;;;;;;;;5088291;28;20495;-73
2021/05/11 17:48:53;;;;;;;1.57;0.90;;;;;;;;;;5087804;28;20444;-73